Time;durP1;ratioP1;P1;durP2;ratioP2;P2;SDS_P1;SDS_P2;PMS_P1;PMS_P2;Temp;Humidity;BMP_temperature;BMP_pressure;BME280_temperature;BME280_humidity;BME280_pressure;Samples;Min_cycle;Max_cycle;Signal;HPM_P1;HPM_P2
2021/11/07 00:02:28;;;;;;;0.50;0.50;;;;;;;19.98;50.81;100950.81;5037430;28;20137;-66
2021/11/07 00:05:06;;;;;;;1.00;0.70;;;;;;;20.00;50.65;100952.53;5029081;28;20128;-67
2021/11/07 00:07:43;;;;;;;0.57;0.52;;;;;;;19.99;50.63;100946.31;5021173;28;20063;-65
2021/11/07 00:10:18;;;;;;;0.63;0.55;;;;;;;20.00;50.76;100944.50;5021494;28;20054;-66
2021/11/07 00:12:48;;;;;;;0.60;0.60;;;;;;;19.99;50.52;100932.94;5032983;28;20151;-67
2021/11/07 00:15:17;;;;;;;0.70;0.70;;;;;;;19.99;50.66;100922.25;5015571;28;20053;-68
2021/11/07 00:17:50;;;;;;;0.85;0.70;;;;;;;19.99;50.69;100906.22;5018439;28;20053;-67
2021/11/07 00:20:30;;;;;;;0.60;0.52;;;;;;;20.00;50.94;100907.09;5018112;28;20050;-67
2021/11/07 00:23:07;;;;;;;0.98;0.70;;;;;;;19.99;50.84;100911.56;5018539;28;20508;-67
2021/11/07 00:25:45;;;;;;;0.77;0.50;;;;;;;20.00;50.61;100901.75;5006393;28;20072;-67
2021/11/07 00:28:33;;;;;;;0.90;0.60;;;;;;;20.00;50.63;100893.75;5038067;28;20063;-67
2021/11/07 00:31:16;;;;;;;0.70;0.50;;;;;;;20.00;50.67;100889.22;5011505;28;20053;-67
2021/11/07 00:39:22;;;;;;;0.65;0.60;;;;;;;20.00;50.73;100873.19;5032542;28;20155;-67
2021/11/07 00:41:56;;;;;;;0.70;0.63;;;;;;;19.98;50.76;100857.28;5033931;28;20551;-66
2021/11/07 00:44:32;;;;;;;0.60;0.60;;;;;;;20.00;50.61;100867.03;4994426;28;20054;-67
2021/11/07 00:47:11;;;;;;;0.70;0.63;;;;;;;19.98;50.69;100854.63;5035801;28;20563;-67
2021/11/07 00:49:43;;;;;;;0.88;0.68;;;;;;;20.00;50.57;100851.81;5022115;28;20045;-65
2021/11/07 00:55:01;;;;;;;0.68;0.65;;;;;;;20.00;50.81;100821.59;5012598;28;20055;-67
2021/11/07 01:00:00;;;;;;;0.70;0.63;;;;;;;20.00;50.54;100817.09;5028051;28;20132;-66
2021/11/07 01:02:31;;;;;;;0.60;0.50;;;;;;;20.00;50.68;100795.69;5033753;28;20050;-67
2021/11/07 01:05:00;;;;;;;1.05;0.70;;;;;;;20.00;50.61;100795.69;5011686;28;20151;-67
2021/11/07 01:07:27;;;;;;;0.70;0.57;;;;;;;20.00;50.81;100801.06;5021027;28;20524;-66
2021/11/07 01:09:56;;;;;;;0.70;0.50;;;;;;;20.01;50.60;100804.56;5039366;28;20071;-67
2021/11/07 01:12:24;;;;;;;1.02;0.70;;;;;;;20.01;50.68;100805.41;5027629;28;20517;-66
2021/11/07 01:14:54;;;;;;;0.60;0.60;;;;;;;20.02;50.59;100801.72;5014620;28;20050;-67
2021/11/07 01:17:21;;;;;;;0.70;0.60;;;;;;;20.01;50.68;100784.03;5025442;28;20390;-67
2021/11/07 01:19:52;;;;;;;0.65;0.57;;;;;;;20.00;50.61;100782.34;5026178;28;20045;-67
2021/11/07 01:22:24;;;;;;;0.73;0.60;;;;;;;20.02;50.60;100799.06;5028117;28;20057;-67
2021/11/07 01:24:58;;;;;;;0.73;0.63;;;;;;;20.01;50.76;100785.84;5030084;28;20057;-67
2021/11/07 01:27:31;;;;;;;0.57;0.57;;;;;;;20.01;50.61;100773.31;5045292;28;20041;-66
2021/11/07 01:30:01;;;;;;;0.70;0.68;;;;;;;20.01;50.63;100772.50;5020899;28;20057;-66
2021/11/07 01:32:35;;;;;;;0.80;0.80;;;;;;;20.01;50.69;100754.63;5016902;28;20059;-67
2021/11/07 01:35:11;;;;;;;0.60;0.60;;;;;;;20.01;50.80;100738.59;5023890;28;20061;-67
2021/11/07 01:37:48;;;;;;;1.00;0.50;;;;;;;20.00;50.78;100739.59;5024560;28;20064;-67
2021/11/07 01:40:18;;;;;;;0.68;0.50;;;;;;;20.01;50.89;100735.09;5020653;28;20054;-66
2021/11/07 01:42:54;;;;;;;0.70;0.60;;;;;;;20.01;50.83;100716.38;5042875;28;20047;-67
2021/11/07 01:45:27;;;;;;;0.57;0.50;;;;;;;20.01;50.68;100721.72;5031958;28;20517;-66
2021/11/07 01:48:14;;;;;;;0.82;0.80;;;;;;;20.01;50.67;100709.19;5041594;28;20083;-66
2021/11/07 01:50:52;;;;;;;0.88;0.63;;;;;;;20.01;50.90;100711.88;4995697;28;20133;-67
2021/11/07 01:53:24;;;;;;;0.52;0.52;;;;;;;20.01;50.58;100701.19;5038087;28;20072;-67
2021/11/07 01:55:53;;;;;;;0.57;0.57;;;;;;;20.01;50.60;100689.66;5023626;28;20049;-67
2021/11/07 01:58:20;;;;;;;0.70;0.70;;;;;;;20.01;50.73;100685.16;5015805;28;20084;-67
2021/11/07 02:00:50;;;;;;;0.75;0.70;;;;;;;20.01;50.67;100685.16;5040109;28;20049;-66
2021/11/07 02:03:18;;;;;;;0.70;0.60;;;;;;;20.02;50.57;100686.81;5035280;28;20059;-66
2021/11/07 02:05:45;;;;;;;0.70;0.70;;;;;;;20.01;50.57;100685.16;5013844;28;20045;-66
2021/11/07 02:08:13;;;;;;;0.82;0.75;;;;;;;20.01;50.67;100685.16;5020505;28;20535;-67
2021/11/07 02:10:41;;;;;;;0.60;0.60;;;;;;;20.01;50.60;100666.44;5036942;28;20060;-67
2021/11/07 02:13:09;;;;;;;0.60;0.60;;;;;;;20.01;50.58;100666.44;5004213;28;20059;-67
2021/11/07 02:15:36;;;;;;;0.68;0.60;;;;;;;20.01;50.59;100658.41;5017804;28;20045;-66
2021/11/07 02:18:03;;;;;;;0.80;0.70;;;;;;;20.02;50.72;100659.25;5014099;28;20057;-67
2021/11/07 02:20:32;;;;;;;0.60;0.60;;;;;;;20.02;50.53;100653.91;5019214;28;20045;-67
2021/11/07 02:23:03;;;;;;;0.57;0.57;;;;;;;20.02;50.47;100648.56;5010356;28;20119;-67
2021/11/07 02:25:30;;;;;;;1.58;0.80;;;;;;;20.01;50.55;100650.41;5025085;28;20535;-66
2021/11/07 02:27:58;;;;;;;0.93;0.63;;;;;;;20.01;50.60;100646.91;5026944;28;20053;-66
2021/11/07 02:30:25;;;;;;;1.05;0.70;;;;;;;20.01;50.67;100637.03;5009853;28;20634;-67
2021/11/07 02:32:52;;;;;;;0.75;0.68;;;;;;;20.02;50.57;100638.72;5030025;28;20449;-67
2021/11/07 02:35:19;;;;;;;0.68;0.50;;;;;;;20.02;50.71;100627.19;4994102;28;20128;-67
2021/11/07 02:37:46;;;;;;;0.88;0.77;;;;;;;20.02;50.65;100619.19;5024586;28;20060;-66
2021/11/07 02:40:14;;;;;;;0.52;0.50;;;;;;;20.02;50.36;100608.50;5006268;28;20062;-67
2021/11/07 02:42:43;;;;;;;0.85;0.70;;;;;;;20.03;50.62;100607.50;5024832;28;20097;-67
2021/11/07 02:45:12;;;;;;;0.70;0.60;;;;;;;20.02;50.74;100601.31;5034015;28;20052;-67
2021/11/07 02:47:40;;;;;;;0.60;0.60;;;;;;;20.03;50.65;100588.78;5022358;28;20044;-67
2021/11/07 02:50:08;;;;;;;0.82;0.70;;;;;;;20.03;50.74;100594.97;5020467;28;20071;-66
2021/11/07 02:52:35;;;;;;;0.60;0.60;;;;;;;20.02;50.53;100581.75;5011785;28;20441;-66
2021/11/07 02:55:03;;;;;;;0.50;0.50;;;;;;;20.02;50.61;100584.44;5013166;28;20056;-67
2021/11/07 02:57:30;;;;;;;0.52;0.50;;;;;;;20.03;50.64;100578.09;5010962;28;20055;-67
2021/11/07 02:59:58;;;;;;;0.60;0.50;;;;;;;20.03;50.68;100586.09;5028818;28;20049;-66
2021/11/07 03:02:27;;;;;;;0.70;0.70;;;;;;;20.03;50.62;100568.25;5021182;28;20073;-66
2021/11/07 03:04:55;;;;;;;0.60;0.60;;;;;;;20.04;50.51;100567.28;5034700;28;20049;-67
2021/11/07 03:07:22;;;;;;;0.70;0.70;;;;;;;20.03;49.99;100560.22;5017908;28;20064;-67
2021/11/07 03:09:50;;;;;;;0.95;0.60;;;;;;;20.03;50.69;100557.56;5039012;28;20045;-66
2021/11/07 03:12:17;;;;;;;0.85;0.65;;;;;;;20.03;50.70;100536.19;5002248;28;20054;-66
2021/11/07 03:14:50;;;;;;;0.95;0.70;;;;;;;20.04;50.64;100523.66;5022291;28;20683;-66
2021/11/07 03:17:24;;;;;;;0.70;0.60;;;;;;;20.02;50.65;100521.13;5008937;28;20046;-69
2021/11/07 03:19:53;;;;;;;0.60;0.50;;;;;;;20.02;50.67;100515.78;5029566;28;20056;-66
2021/11/07 03:22:23;;;;;;;1.02;0.68;;;;;;;20.03;50.56;100503.28;5025020;28;20409;-67
2021/11/07 03:24:56;;;;;;;0.73;0.70;;;;;;;20.03;50.67;100504.09;5015864;28;20057;-66
2021/11/07 03:27:32;;;;;;;0.80;0.70;;;;;;;20.03;50.67;100504.09;5045863;28;20664;-68
2021/11/07 03:30:01;;;;;;;0.60;0.60;;;;;;;20.04;50.67;100504.94;5016583;28;20057;-67
2021/11/07 03:32:31;;;;;;;0.85;0.80;;;;;;;20.04;50.77;100500.47;5022779;28;20056;-68
2021/11/07 03:35:04;;;;;;;0.90;0.77;;;;;;;20.03;50.65;100490.75;5041495;28;20148;-68
2021/11/07 03:37:37;;;;;;;0.93;0.73;;;;;;;20.03;50.56;100497.94;5019299;28;20057;-66
2021/11/07 03:40:09;;;;;;;0.85;0.65;;;;;;;20.03;50.74;100493.41;5018191;28;20548;-67
2021/11/07 03:42:47;;;;;;;0.90;0.70;;;;;;;20.04;50.59;100504.94;5026457;28;20050;-65
2021/11/07 03:45:15;;;;;;;0.70;0.68;;;;;;;20.04;50.44;100502.28;5015726;28;20077;-66
2021/11/07 03:47:42;;;;;;;0.63;0.63;;;;;;;20.05;50.83;100494.13;5035007;28;20053;-67
2021/11/07 03:50:09;;;;;;;0.60;0.60;;;;;;;20.04;50.91;100479.09;5021503;28;20072;-67
2021/11/07 03:52:37;;;;;;;0.50;0.50;;;;;;;20.04;50.72;100476.41;5028845;28;20089;-66
2021/11/07 03:55:06;;;;;;;0.73;0.55;;;;;;;20.03;50.63;100463.19;5017615;28;20049;-66
2021/11/07 03:57:33;;;;;;;0.57;0.57;;;;;;;20.04;50.49;100465.72;5002375;28;20048;-66
2021/11/07 04:00:00;;;;;;;0.73;0.65;;;;;;;20.04;50.76;100451.50;5011356;28;20508;-66
2021/11/07 04:02:28;;;;;;;0.90;0.70;;;;;;;20.04;50.67;100443.47;5003961;28;20552;-66
2021/11/07 04:04:55;;;;;;;0.60;0.60;;;;;;;20.04;50.49;100436.34;5000200;28;20053;-67
2021/11/07 04:07:23;;;;;;;0.50;0.50;;;;;;;20.04;50.69;100440.81;5007388;28;20137;-67
2021/11/07 04:09:50;;;;;;;0.90;0.70;;;;;;;20.04;50.63;100441.69;5026739;28;20056;-69
2021/11/07 04:12:17;;;;;;;0.50;0.50;;;;;;;20.04;50.41;100428.31;5029589;28;20107;-67
2021/11/07 04:14:45;;;;;;;0.77;0.68;;;;;;;20.05;50.48;100427.31;5034333;28;20057;-66
2021/11/07 04:17:12;;;;;;;1.00;0.60;;;;;;;20.04;50.51;100425.66;5031667;28;20073;-69
2021/11/07 04:19:39;;;;;;;1.00;0.60;;;;;;;20.03;50.58;100413.25;5025834;28;20044;-67
2021/11/07 04:22:09;;;;;;;0.60;0.60;;;;;;;20.05;50.34;100413.94;5028305;28;20064;-67
2021/11/07 04:24:36;;;;;;;0.52;0.52;;;;;;;20.04;50.56;100406.06;5014952;28;20099;-67
2021/11/07 04:27:04;;;;;;;0.70;0.60;;;;;;;20.04;50.51;100404.25;5041284;28;20053;-67
2021/11/07 04:29:31;;;;;;;0.80;0.77;;;;;;;20.04;50.08;100401.59;5023450;28;20059;-66
2021/11/07 04:31:59;;;;;;;0.65;0.60;;;;;;;20.04;50.57;100400.72;5032282;28;20060;-67
2021/11/07 04:34:26;;;;;;;1.13;0.60;;;;;;;20.04;50.50;100396.25;5030994;28;20141;-67
2021/11/07 04:36:54;;;;;;;1.42;0.60;;;;;;;20.04;50.58;100392.72;5004674;28;20049;-67
2021/11/07 04:39:24;;;;;;;0.73;0.73;;;;;;;20.04;50.59;100388.22;5003229;28;20053;-67
2021/11/07 04:41:52;;;;;;;0.73;0.52;;;;;;;20.05;50.47;100394.41;5000022;28;20414;-67
2021/11/07 04:44:19;;;;;;;0.70;0.70;;;;;;;20.04;50.64;100390.03;5029148;28;20468;-67
2021/11/07 04:46:46;;;;;;;0.60;0.60;;;;;;;20.05;50.49;100391.75;5038352;28;20057;-66
2021/11/07 04:49:13;;;;;;;0.50;0.50;;;;;;;20.05;50.42;100386.41;5033311;28;20053;-66
2021/11/07 04:51:41;;;;;;;0.50;0.50;;;;;;;20.04;50.61;100380.22;5034927;28;20053;-66
2021/11/07 04:54:08;;;;;;;0.40;0.40;;;;;;;20.05;50.59;100375.72;5035947;28;20555;-67
2021/11/07 04:56:35;;;;;;;0.60;0.57;;;;;;;20.05;50.65;100371.19;5025022;28;20045;-67
2021/11/07 04:59:03;;;;;;;0.88;0.75;;;;;;;20.05;50.49;100360.50;4995940;28;20045;-67
2021/11/07 05:01:30;;;;;;;0.80;0.70;;;;;;;20.05;50.55;100355.16;5038795;28;20501;-67
2021/11/07 05:03:57;;;;;;;0.98;0.70;;;;;;;20.06;50.55;100358.66;5008405;28;20078;-67
2021/11/07 05:06:25;;;;;;;0.60;0.60;;;;;;;20.04;50.64;100353.50;5024904;28;20049;-67
2021/11/07 05:08:52;;;;;;;0.50;0.50;;;;;;;20.05;50.68;100352.50;5031585;28;20515;-67
2021/11/07 05:11:20;;;;;;;0.60;0.55;;;;;;;20.04;50.62;100345.47;5022682;28;20045;-66
2021/11/07 05:13:47;;;;;;;0.90;0.80;;;;;;;20.05;50.54;100349.81;5030120;28;20444;-67
2021/11/07 05:16:15;;;;;;;0.75;0.60;;;;;;;20.05;50.56;100347.16;5010001;28;20132;-67
2021/11/07 05:18:43;;;;;;;0.55;0.55;;;;;;;20.06;50.47;100334.63;5016611;28;20045;-67
2021/11/07 05:21:11;;;;;;;0.95;0.80;;;;;;;20.06;50.61;100335.47;5001811;28;20065;-67
2021/11/07 05:23:38;;;;;;;0.88;0.80;;;;;;;20.06;50.49;100337.28;5012508;28;20063;-67
2021/11/07 05:26:05;;;;;;;0.70;0.70;;;;;;;20.06;50.61;100337.28;5032224;28;20539;-67
2021/11/07 05:28:34;;;;;;;0.60;0.60;;;;;;;20.05;50.58;100328.44;5025528;28;20041;-67
2021/11/07 05:31:02;;;;;;;0.70;0.70;;;;;;;20.06;50.62;100339.97;5028400;28;20104;-67
2021/11/07 05:33:31;;;;;;;0.77;0.60;;;;;;;20.06;50.63;100326.59;5026714;28;20056;-67
2021/11/07 05:35:58;;;;;;;0.90;0.80;;;;;;;20.05;50.50;100312.41;5019301;28;20048;-68
2021/11/07 05:38:25;;;;;;;0.45;0.45;;;;;;;20.06;50.57;100310.56;5015409;28;20049;-68
2021/11/07 05:40:52;;;;;;;0.95;0.70;;;;;;;20.06;50.49;100291.88;5002219;28;20051;-68
2021/11/07 05:43:21;;;;;;;0.65;0.50;;;;;;;20.05;50.46;100293.72;5002416;28;20108;-68
2021/11/07 05:45:49;;;;;;;0.75;0.60;;;;;;;20.05;50.62;100300.88;5034490;28;20045;-67
2021/11/07 05:48:17;;;;;;;0.70;0.60;;;;;;;20.05;50.56;100300.88;5025276;28;20041;-67
2021/11/07 05:50:45;;;;;;;0.82;0.70;;;;;;;20.06;50.51;100313.25;5012970;28;20045;-68
2021/11/07 05:53:12;;;;;;;0.70;0.70;;;;;;;20.05;50.50;100301.72;5038493;28;20052;-68
2021/11/07 05:55:39;;;;;;;0.60;0.50;;;;;;;20.05;50.47;100307.06;5016682;28;20063;-67
2021/11/07 05:58:07;;;;;;;0.77;0.63;;;;;;;20.06;50.58;100298.03;5022533;28;20053;-68
2021/11/07 06:00:35;;;;;;;0.60;0.60;;;;;;;20.05;50.54;100296.38;5036058;28;20049;-68
2021/11/07 06:03:06;;;;;;;0.70;0.60;;;;;;;20.06;50.61;100315.91;5002703;28;20115;-67
2021/11/07 06:05:34;;;;;;;0.70;0.57;;;;;;;20.05;50.70;100303.56;5033813;28;20144;-68
2021/11/07 06:08:02;;;;;;;1.13;0.70;;;;;;;20.06;50.49;100302.56;5041149;28;20047;-67
2021/11/07 06:10:33;;;;;;;0.55;0.52;;;;;;;20.06;50.60;100298.03;5013268;28;20129;-68
2021/11/07 06:13:01;;;;;;;0.77;0.77;;;;;;;20.06;50.57;100291.88;5033167;28;20063;-68
2021/11/07 06:15:29;;;;;;;0.65;0.60;;;;;;;20.06;50.33;100292.69;5000312;28;20516;-68
2021/11/07 06:17:56;;;;;;;0.57;0.52;;;;;;;20.06;50.40;100290.03;5013056;28;20547;-68
2021/11/07 06:20:23;;;;;;;0.60;0.60;;;;;;;20.06;50.53;100289.19;5031632;28;20053;-67
2021/11/07 06:22:51;;;;;;;0.77;0.52;;;;;;;20.07;50.64;100286.34;5023712;28;20413;-68
2021/11/07 06:25:18;;;;;;;0.40;0.40;;;;;;;20.06;50.22;100278.50;5033176;28;20068;-67
2021/11/07 06:27:45;;;;;;;0.60;0.60;;;;;;;20.06;50.63;100284.69;5012573;28;20069;-67
2021/11/07 06:30:12;;;;;;;0.77;0.50;;;;;;;20.07;50.60;100288.19;5033663;28;20050;-67
2021/11/07 06:32:39;;;;;;;0.70;0.60;;;;;;;20.07;50.51;100282.84;5040022;28;20045;-66
2021/11/07 06:35:08;;;;;;;0.93;0.70;;;;;;;20.07;50.34;100283.69;5017848;28;20076;-68
2021/11/07 06:37:35;;;;;;;0.60;0.60;;;;;;;20.07;50.58;100285.53;5033580;28;20052;-68
2021/11/07 06:40:04;;;;;;;0.80;0.73;;;;;;;20.07;50.58;100285.53;5032343;28;20046;-68
2021/11/07 06:42:32;;;;;;;0.60;0.60;;;;;;;20.06;50.56;100289.19;5020085;28;20133;-68
2021/11/07 06:44:59;;;;;;;0.85;0.60;;;;;;;20.08;50.41;100292.53;5033583;28;20504;-68
2021/11/07 06:47:26;;;;;;;0.77;0.50;;;;;;;20.08;50.63;100290.69;5038278;28;20045;-68
2021/11/07 06:49:53;;;;;;;0.63;0.50;;;;;;;20.07;50.42;100282.84;5036308;28;20076;-68
2021/11/07 06:52:20;;;;;;;0.55;0.55;;;;;;;20.07;50.68;100282.84;5031596;28;20093;-68
2021/11/07 06:54:48;;;;;;;0.50;0.47;;;;;;;20.08;50.55;100279.16;5039127;28;20107;-68
2021/11/07 06:57:15;;;;;;;0.70;0.60;;;;;;;20.07;50.39;100277.50;5035183;28;20486;-68
2021/11/07 06:59:43;;;;;;;0.85;0.57;;;;;;;20.07;50.62;100281.00;5012983;28;20090;-67
2021/11/07 07:02:10;;;;;;;0.70;0.63;;;;;;;20.08;50.41;100282.69;5018113;28;20155;-68
2021/11/07 07:04:38;;;;;;;0.80;0.70;;;;;;;20.07;50.42;100275.66;5012993;28;20051;-68
2021/11/07 07:07:06;;;;;;;0.60;0.60;;;;;;;20.08;50.70;100274.66;5013330;28;20054;-68
2021/11/07 07:09:43;;;;;;;0.82;0.50;;;;;;;20.08;50.57;100273.81;5024876;28;20072;-68
2021/11/07 07:12:32;;;;;;;0.50;0.40;;;;;;;20.08;50.41;100274.66;5030274;28;20053;-67
2021/11/07 07:15:10;;;;;;;0.77;0.52;;;;;;;20.09;50.54;100280.88;5015166;28;20104;-67
2021/11/07 07:17:48;;;;;;;0.60;0.50;;;;;;;20.08;50.44;100269.31;5005169;28;20041;-67
2021/11/07 07:33:45;;;;;;;0.85;0.80;;;;;;;20.08;50.58;100280.00;5005912;28;20049;-68
2021/11/07 07:36:12;;;;;;;0.50;0.50;;;;;;;20.08;50.64;100273.81;5036080;28;20071;-68
2021/11/07 07:38:39;;;;;;;0.60;0.50;;;;;;;20.08;50.76;100269.31;5036280;28;20045;-68
2021/11/07 07:41:07;;;;;;;0.88;0.80;;;;;;;20.09;50.42;100262.16;5024127;28;20060;-67
2021/11/07 07:43:34;;;;;;;0.80;0.70;;;;;;;20.08;50.65;100263.97;5019231;28;20052;-67
2021/11/07 07:46:09;;;;;;;0.68;0.68;;;;;;;20.09;50.56;100263.00;5015738;28;20148;-68
2021/11/07 07:48:41;;;;;;;0.50;0.50;;;;;;;20.09;50.54;100265.66;5027641;28;20063;-68
2021/11/07 07:51:10;;;;;;;0.70;0.65;;;;;;;20.09;50.48;100257.66;5026941;28;20054;-66
2021/11/07 07:53:38;;;;;;;0.60;0.50;;;;;;;20.09;50.42;100259.50;5000719;28;20783;-68
2021/11/07 07:56:06;;;;;;;0.50;0.50;;;;;;;20.09;50.37;100271.00;4998764;28;20061;-67
2021/11/07 07:58:35;;;;;;;0.65;0.60;;;;;;;20.10;50.43;100263.81;5021973;28;20429;-67
2021/11/07 08:01:03;;;;;;;0.77;0.70;;;;;;;20.11;50.18;100254.81;5022731;28;20083;-67
2021/11/07 08:03:31;;;;;;;0.80;0.60;;;;;;;20.10;50.55;100253.97;5030100;28;20111;-67
2021/11/07 08:05:58;;;;;;;0.85;0.70;;;;;;;20.10;50.54;100248.63;5034813;28;20057;-67
2021/11/07 08:08:27;;;;;;;0.70;0.70;;;;;;;20.10;50.53;100256.66;5030256;28;20160;-68
2021/11/07 08:10:54;;;;;;;0.68;0.60;;;;;;;20.11;50.47;100252.13;5019513;28;20059;-67
2021/11/07 08:13:21;;;;;;;0.40;0.40;;;;;;;20.10;50.47;100256.66;5016598;28;20126;-68
2021/11/07 08:15:48;;;;;;;0.75;0.60;;;;;;;20.11;50.45;100249.47;5018377;28;20066;-67
2021/11/07 08:18:15;;;;;;;0.85;0.77;;;;;;;20.11;50.56;100249.47;5023487;28;20054;-68
2021/11/07 08:20:44;;;;;;;0.70;0.55;;;;;;;20.10;50.33;100251.31;5015605;28;20151;-68
2021/11/07 08:23:12;;;;;;;0.60;0.60;;;;;;;20.12;50.50;100253.81;5033709;28;20072;-68
2021/11/07 08:25:39;;;;;;;1.52;0.68;;;;;;;20.12;50.54;100254.63;5020713;28;20045;-68
2021/11/07 08:28:07;;;;;;;0.50;0.50;;;;;;;20.13;50.60;100240.31;5020786;28;20060;-68
2021/11/07 08:30:39;;;;;;;0.70;0.70;;;;;;;20.13;50.38;100245.66;5039539;28;20538;-68
2021/11/07 08:33:07;;;;;;;0.47;0.47;;;;;;;20.13;50.39;100239.47;5018637;28;20544;-68
2021/11/07 08:35:39;;;;;;;0.60;0.60;;;;;;;20.14;50.36;100238.47;5035996;28;20056;-68
2021/11/07 08:38:13;;;;;;;0.60;0.60;;;;;;;20.13;50.28;100242.97;5012909;28;20133;-68
2021/11/07 08:41:01;;;;;;;0.57;0.57;;;;;;;20.14;50.47;100236.63;5020750;28;20115;-68
2021/11/07 09:02:57;;;;;;;0.95;0.68;;;;;;;20.13;50.31;100218.09;5032127;28;20589;-67
2021/11/07 09:05:32;;;;;;;0.57;0.50;;;;;;;20.14;50.40;100217.91;5003755;28;20049;-68
2021/11/07 09:10:35;;;;;;;0.75;0.65;;;;;;;20.12;50.39;100222.56;5042872;28;20285;-68
2021/11/07 09:13:06;;;;;;;1.08;0.70;;;;;;;20.14;50.27;100214.41;5021310;28;20128;-68
2021/11/07 09:15:36;;;;;;;0.60;0.60;;;;;;;20.14;50.62;100206.38;5014178;28;20045;-68
2021/11/07 09:18:04;;;;;;;0.52;0.52;;;;;;;20.14;50.63;100201.03;5004023;28;20056;-68
2021/11/07 09:20:44;;;;;;;0.77;0.73;;;;;;;20.16;50.33;100196.34;5016311;28;20045;-67
2021/11/07 09:23:28;;;;;;;0.93;0.65;;;;;;;20.14;50.54;100185.84;5020662;28;20081;-68
2021/11/07 09:28:31;;;;;;;0.77;0.60;;;;;;;20.15;50.30;100179.50;5000596;28;20103;-68
2021/11/07 09:34:05;;;;;;;0.70;0.57;;;;;;;20.14;50.51;100167.13;5012302;28;20045;-67
2021/11/07 09:36:36;;;;;;;0.50;0.47;;;;;;;20.14;50.41;100175.16;5022084;28;20052;-67
2021/11/07 09:44:20;;;;;;;0.80;0.55;;;;;;;20.15;50.51;100179.50;5033986;28;20059;-67
2021/11/07 09:49:24;;;;;;;0.30;0.30;;;;;;;20.16;50.56;100180.31;5015220;28;20441;-68
2021/11/07 09:52:01;;;;;;;0.57;0.57;;;;;;;20.15;50.44;100184.84;5013394;28;20057;-68
2021/11/07 09:54:29;;;;;;;0.55;0.52;;;;;;;20.15;50.38;100173.31;5037861;28;20061;-68
2021/11/07 09:56:58;;;;;;;0.77;0.60;;;;;;;20.16;50.43;100164.28;5021894;28;20072;-69
2021/11/07 09:59:28;;;;;;;0.90;0.60;;;;;;;20.16;50.57;100175.81;5037495;28;20088;-68
2021/11/07 10:02:00;;;;;;;0.63;0.47;;;;;;;20.17;50.48;100180.19;5003161;28;20045;-68
2021/11/07 10:04:29;;;;;;;0.80;0.60;;;;;;;20.17;50.40;100176.66;5037254;28;20144;-68
2021/11/07 10:07:23;;;;;;;0.55;0.50;;;;;;;20.16;50.53;100174.97;5032509;28;20050;-67
2021/11/07 10:09:57;;;;;;;0.55;0.55;;;;;;;20.17;50.26;100173.97;5035610;28;20087;-68
2021/11/07 10:12:50;;;;;;;0.73;0.60;;;;;;;20.18;50.41;100167.66;5040637;28;20053;-67
2021/11/07 10:15:39;;;;;;;0.60;0.60;;;;;;;20.19;50.37;100170.16;5030810;28;20108;-68
2021/11/07 10:18:08;;;;;;;0.70;0.52;;;;;;;20.19;50.30;100170.16;5036637;28;20145;-67
2021/11/07 10:20:47;;;;;;;0.68;0.63;;;;;;;20.19;50.32;100167.47;5034114;28;20068;-67
2021/11/07 10:23:21;;;;;;;0.52;0.52;;;;;;;20.19;50.20;100172.81;5035464;28;20498;-67
2021/11/07 10:25:55;;;;;;;0.70;0.50;;;;;;;20.19;50.46;100162.13;5015256;28;20045;-68
2021/11/07 10:28:29;;;;;;;0.40;0.40;;;;;;;20.19;50.20;100167.47;5031825;28;20069;-68
2021/11/07 10:31:15;;;;;;;0.60;0.60;;;;;;;20.20;50.41;100163.78;5018927;28;20491;-67
2021/11/07 10:37:04;;;;;;;0.50;0.50;;;;;;;20.21;50.40;100173.47;5026771;28;20045;-69
2021/11/07 10:42:45;;;;;;;0.55;0.55;;;;;;;20.20;50.15;100160.28;5036567;28;20055;-67
2021/11/07 10:53:44;;;;;;;0.65;0.52;;;;;;;20.18;50.29;100151.63;5003913;28;20060;-67
2021/11/07 10:56:13;;;;;;;0.55;0.55;;;;;;;20.17;50.37;100158.81;5022095;28;20061;-68
2021/11/07 10:58:46;;;;;;;0.40;0.40;;;;;;;20.18;50.47;100146.28;5034321;28;20052;-67
2021/11/07 11:01:21;;;;;;;0.68;0.50;;;;;;;20.18;50.33;100144.44;5005876;28;20036;-67
2021/11/07 11:03:53;;;;;;;0.50;0.50;;;;;;;20.18;50.33;100149.78;5028295;28;20057;-67
2021/11/07 11:06:21;;;;;;;0.50;0.50;;;;;;;20.18;50.44;100152.44;5016605;28;20832;-68
2021/11/07 11:08:55;;;;;;;0.95;0.50;;;;;;;20.17;50.40;100177.50;5035257;28;20048;-67
2021/11/07 11:11:28;;;;;;;0.68;0.50;;;;;;;20.17;50.26;100172.16;5025417;28;20049;-68
2021/11/07 11:14:16;;;;;;;1.40;0.80;;;;;;;20.18;50.48;100189.03;5007270;28;20388;-68
2021/11/07 11:17:11;;;;;;;1.08;0.57;;;;;;;20.18;50.45;100208.56;5031552;28;20065;-67
2021/11/07 11:20:00;;;;;;;0.60;0.60;;;;;;;20.18;50.31;100219.25;5022797;28;20045;-66
2021/11/07 11:22:37;;;;;;;0.77;0.70;;;;;;;20.17;50.57;100188.19;5013082;28;20041;-67
2021/11/07 11:28:04;;;;;;;0.50;0.50;;;;;;;20.17;50.46;100158.81;5032705;28;20465;-68
2021/11/07 11:33:16;;;;;;;0.63;0.50;;;;;;;20.17;50.39;100169.50;5015001;28;20398;-68
2021/11/07 11:38:18;;;;;;;0.50;0.50;;;;;;;20.17;50.41;100160.59;5019374;28;20057;-67
2021/11/07 11:43:20;;;;;;;0.40;0.40;;;;;;;20.17;50.20;100157.94;5015522;28;20076;-67
2021/11/07 11:45:54;;;;;;;0.60;0.60;;;;;;;20.17;50.27;100148.09;5011092;28;20046;-67
2021/11/07 11:56:49;;;;;;;0.85;0.40;;;;;;;20.20;50.12;100138.91;5026182;28;20571;-67
2021/11/07 11:59:28;;;;;;;0.60;0.60;;;;;;;20.21;50.37;100145.91;5014563;28;20057;-67
2021/11/07 12:02:14;;;;;;;0.60;0.57;;;;;;;20.22;50.17;100139.59;5033910;28;20060;-67
2021/11/07 12:05:15;;;;;;;0.60;0.43;;;;;;;20.23;50.30;100141.25;5012359;28;20048;-67
2021/11/07 12:07:57;;;;;;;0.80;0.50;;;;;;;20.22;50.23;100143.09;5012215;28;20041;-67
2021/11/07 12:10:35;;;;;;;4.05;0.70;;;;;;;20.23;50.09;100133.25;5029472;28;20065;-67
2021/11/07 12:13:26;;;;;;;0.50;0.50;;;;;;;20.24;50.20;100135.75;5037769;28;20049;-67
2021/11/07 12:15:57;;;;;;;0.43;0.43;;;;;;;20.24;50.41;100132.25;5011662;28;20056;-67
2021/11/07 12:18:25;;;;;;;0.70;0.47;;;;;;;20.26;50.50;100129.38;5030934;28;20065;-66
2021/11/07 12:20:56;;;;;;;0.70;0.60;;;;;;;20.26;50.14;100126.72;5023819;28;20045;-67
2021/11/07 12:23:32;;;;;;;0.75;0.60;;;;;;;20.27;50.18;100126.56;5017666;28;20520;-67
2021/11/07 12:26:25;;;;;;;1.00;0.55;;;;;;;20.27;50.06;100126.56;4998682;28;20049;-67
2021/11/07 12:28:54;;;;;;;0.90;0.60;;;;;;;20.28;50.17;100127.41;5016002;28;20048;-66
2021/11/07 12:31:24;;;;;;;0.65;0.50;;;;;;;20.27;50.15;100129.25;5032620;28;20152;-67
2021/11/07 12:34:18;;;;;;;0.50;0.50;;;;;;;20.27;50.08;100123.91;5017225;28;20057;-67
2021/11/07 12:42:29;;;;;;;1.38;0.50;;;;;;;20.27;50.28;100129.25;5015648;28;20055;-67
2021/11/07 12:45:27;;;;;;;1.10;0.57;;;;;;;20.27;50.32;100123.91;5025476;28;20129;-67
2021/11/07 12:48:01;;;;;;;0.95;0.60;;;;;;;20.29;50.11;100124.56;5021212;28;20143;-67
2021/11/07 12:50:28;;;;;;;1.20;0.60;;;;;;;20.32;50.30;100120.72;5009723;28;20056;-67
2021/11/07 12:52:58;;;;;;;0.63;0.50;;;;;;;20.35;49.79;100125.72;5022117;28;20399;-66
2021/11/07 12:55:43;;;;;;;0.50;0.50;;;;;;;20.39;50.06;100121.72;5013731;28;20053;-66
2021/11/07 12:58:13;;;;;;;1.08;0.50;;;;;;;20.42;50.10;100122.22;5037746;28;20049;-68
2021/11/07 13:00:41;;;;;;;0.70;0.60;;;;;;;20.45;49.97;100121.91;5032413;28;20568;-67
2021/11/07 13:03:10;;;;;;;0.95;0.50;;;;;;;20.50;49.84;100113.41;5028492;28;20137;-66
2021/11/07 13:05:39;;;;;;;0.52;0.50;;;;;;;20.50;49.68;100117.94;5034159;28;20053;-67
2021/11/07 13:08:09;;;;;;;0.50;0.40;;;;;;;20.54;49.68;100114.75;5001781;28;20045;-67
2021/11/07 13:16:23;;;;;;;0.98;0.60;;;;;;;20.53;49.68;100113.06;5021776;28;20055;-67
2021/11/07 13:24:23;;;;;;;1.05;0.77;;;;;;;20.47;49.90;100114.56;5007440;28;20049;-67
2021/11/07 13:27:02;;;;;;;0.40;0.40;;;;;;;20.47;49.94;100103.00;5014878;28;20050;-66
2021/11/07 13:29:38;;;;;;;0.50;0.40;;;;;;;20.53;49.55;100114.91;5013756;28;20079;-67
2021/11/07 13:32:22;;;;;;;1.17;0.77;;;;;;;20.56;49.57;100115.41;5024107;28;20427;-68
2021/11/07 13:35:21;;;;;;;0.68;0.60;;;;;;;20.66;49.29;100116.06;5026068;28;20046;-67